sensor_id;sensor_type;location;lat;lon;timestamp;pressure;altitude;pressure_sealevel;temperature;humidity
59787;BME280;45672;51.612;5.536;2023-05-29T00:02:03;102106.00;;;12.84;85.96
59787;BME280;45672;51.612;5.536;2023-05-29T00:04:28;102108.09;;;12.80;85.96
59787;BME280;45672;51.612;5.536;2023-05-29T00:06:53;102116.56;;;12.85;85.07
59787;BME280;45672;51.612;5.536;2023-05-29T00:09:19;102117.22;;;12.68;85.22
59787;BME280;45672;51.612;5.536;2023-05-29T00:11:44;102122.13;;;12.63;84.93
59787;BME280;45672;51.612;5.536;2023-05-29T00:14:12;102122.69;;;12.56;85.37
59787;BME280;45672;51.612;5.536;2023-05-29T00:16:39;102129.69;;;12.57;84.60
59787;BME280;45672;51.612;5.536;2023-05-29T00:19:04;102124.59;;;12.45;85.08
59787;BME280;45672;51.612;5.536;2023-05-29T00:21:30;102125.03;;;12.40;85.34
59787;BME280;45672;51.612;5.536;2023-05-29T00:23:55;102122.91;;;12.44;84.53
59787;BME280;45672;51.612;5.536;2023-05-29T00:26:20;102118.97;;;12.38;84.40
59787;BME280;45672;51.612;5.536;2023-05-29T00:28:46;102126.72;;;12.41;83.92
59787;BME280;45672;51.612;5.536;2023-05-29T00:31:11;102121.75;;;12.36;82.80
59787;BME280;45672;51.612;5.536;2023-05-29T00:33:37;102126.81;;;12.30;82.40
59787;BME280;45672;51.612;5.536;2023-05-29T00:36:02;102128.34;;;12.22;82.24
59787;BME280;45672;51.612;5.536;2023-05-29T00:38:27;102130.09;;;12.12;82.52
59787;BME280;45672;51.612;5.536;2023-05-29T00:40:52;102128.94;;;12.05;82.84
59787;BME280;45672;51.612;5.536;2023-05-29T00:43:18;102132.47;;;12.05;82.09
59787;BME280;45672;51.612;5.536;2023-05-29T00:45:43;102139.75;;;12.03;82.07
59787;BME280;45672;51.612;5.536;2023-05-29T00:48:08;102142.56;;;12.02;81.34
59787;BME280;45672;51.612;5.536;2023-05-29T00:50:34;102143.78;;;11.98;81.38
59787;BME280;45672;51.612;5.536;2023-05-29T00:53:01;102144.16;;;11.93;81.45
59787;BME280;45672;51.612;5.536;2023-05-29T00:55:28;102150.16;;;11.85;81.34
59787;BME280;45672;51.612;5.536;2023-05-29T00:57:54;102143.63;;;11.78;81.81
59787;BME280;45672;51.612;5.536;2023-05-29T01:00:19;102147.16;;;11.79;81.49
59787;BME280;45672;51.612;5.536;2023-05-29T01:02:45;102148.00;;;11.79;81.29
59787;BME280;45672;51.612;5.536;2023-05-29T01:05:12;102160.31;;;11.70;81.22
59787;BME280;45672;51.612;5.536;2023-05-29T01:07:38;102161.19;;;11.60;81.81
59787;BME280;45672;51.612;5.536;2023-05-29T01:10:05;102160.22;;;11.61;81.77
59787;BME280;45672;51.612;5.536;2023-05-29T01:12:38;102162.13;;;11.49;82.49
59787;BME280;45672;51.612;5.536;2023-05-29T01:15:28;102166.03;;;11.66;81.50
59787;BME280;45672;51.612;5.536;2023-05-29T01:20:50;102164.19;;;11.45;82.31
59787;BME280;45672;51.612;5.536;2023-05-29T01:23:31;102170.03;;;11.39;82.32
59787;BME280;45672;51.612;5.536;2023-05-29T01:26:11;102164.31;;;11.44;82.42
59787;BME280;45672;51.612;5.536;2023-05-29T01:28:42;102157.69;;;11.38;82.43
59787;BME280;45672;51.612;5.536;2023-05-29T01:31:09;102154.66;;;11.31;82.85
59787;BME280;45672;51.612;5.536;2023-05-29T01:33:39;102161.25;;;11.27;83.17
59787;BME280;45672;51.612;5.536;2023-05-29T01:36:06;102161.94;;;11.29;82.71
59787;BME280;45672;51.612;5.536;2023-05-29T01:38:31;102170.06;;;11.28;82.86
59787;BME280;45672;51.612;5.536;2023-05-29T01:40:57;102160.38;;;11.27;82.57
59787;BME280;45672;51.612;5.536;2023-05-29T01:43:23;102165.97;;;11.24;82.68
59787;BME280;45672;51.612;5.536;2023-05-29T01:45:48;102159.94;;;11.21;82.92
59787;BME280;45672;51.612;5.536;2023-05-29T01:48:14;102153.88;;;11.19;82.72
59787;BME280;45672;51.612;5.536;2023-05-29T01:50:40;102172.66;;;11.18;82.78
59787;BME280;45672;51.612;5.536;2023-05-29T01:53:09;102168.41;;;11.15;82.86
59787;BME280;45672;51.612;5.536;2023-05-29T01:55:34;102158.53;;;11.06;82.73
59787;BME280;45672;51.612;5.536;2023-05-29T01:58:00;102162.66;;;11.10;83.00
59787;BME280;45672;51.612;5.536;2023-05-29T02:00:26;102159.97;;;11.10;82.59
59787;BME280;45672;51.612;5.536;2023-05-29T02:02:52;102159.97;;;11.10;82.66
59787;BME280;45672;51.612;5.536;2023-05-29T02:05:17;102161.44;;;11.03;82.53
59787;BME280;45672;51.612;5.536;2023-05-29T02:07:42;102161.09;;;10.96;82.92
59787;BME280;45672;51.612;5.536;2023-05-29T02:10:08;102169.66;;;11.00;82.79
59787;BME280;45672;51.612;5.536;2023-05-29T02:12:33;102165.94;;;10.91;83.02
59787;BME280;45672;51.612;5.536;2023-05-29T02:14:59;102153.13;;;10.85;83.11
59787;BME280;45672;51.612;5.536;2023-05-29T02:17:24;102156.16;;;10.92;82.77
59787;BME280;45672;51.612;5.536;2023-05-29T02:19:50;102160.63;;;10.80;82.88
59787;BME280;45672;51.612;5.536;2023-05-29T02:22:17;102161.03;;;10.75;82.96
59787;BME280;45672;51.612;5.536;2023-05-29T02:24:42;102155.56;;;10.77;82.86
59787;BME280;45672;51.612;5.536;2023-05-29T02:27:08;102161.25;;;10.83;82.55
59787;BME280;45672;51.612;5.536;2023-05-29T02:29:34;102165.50;;;10.75;83.25
59787;BME280;45672;51.612;5.536;2023-05-29T02:31:59;102167.78;;;10.79;82.55
59787;BME280;45672;51.612;5.536;2023-05-29T02:34:25;102165.13;;;10.79;82.64
59787;BME280;45672;51.612;5.536;2023-05-29T02:36:51;102170.59;;;10.66;82.99
59787;BME280;45672;51.612;5.536;2023-05-29T02:39:20;102182.81;;;10.69;83.05
59787;BME280;45672;51.612;5.536;2023-05-29T02:41:45;102187.91;;;10.61;83.57
59787;BME280;45672;51.612;5.536;2023-05-29T02:44:11;102178.47;;;10.57;83.53
59787;BME280;45672;51.612;5.536;2023-05-29T02:46:36;102177.97;;;10.51;83.68
59787;BME280;45672;51.612;5.536;2023-05-29T02:49:02;102180.88;;;10.48;83.97
59787;BME280;45672;51.612;5.536;2023-05-29T02:51:27;102186.56;;;10.44;84.34
59787;BME280;45672;51.612;5.536;2023-05-29T02:53:53;102197.72;;;10.49;84.39
59787;BME280;45672;51.612;5.536;2023-05-29T02:56:18;102191.53;;;10.48;84.20
59787;BME280;45672;51.612;5.536;2023-05-29T02:58:44;102184.75;;;10.44;84.58
59787;BME280;45672;51.612;5.536;2023-05-29T03:01:10;102175.09;;;10.43;84.41
59787;BME280;45672;51.612;5.536;2023-05-29T03:03:35;102186.31;;;10.35;85.12
59787;BME280;45672;51.612;5.536;2023-05-29T03:06:01;102190.81;;;10.35;85.16
59787;BME280;45672;51.612;5.536;2023-05-29T03:08:26;102190.69;;;10.37;85.09
59787;BME280;45672;51.612;5.536;2023-05-29T03:10:53;102183.03;;;10.32;85.31
59787;BME280;45672;51.612;5.536;2023-05-29T03:13:18;102180.47;;;10.30;85.32
59787;BME280;45672;51.612;5.536;2023-05-29T03:15:44;102178.81;;;10.29;85.81
59787;BME280;45672;51.612;5.536;2023-05-29T03:18:09;102180.59;;;10.29;85.79
59787;BME280;45672;51.612;5.536;2023-05-29T03:20:34;102179.38;;;10.22;86.02
59787;BME280;45672;51.612;5.536;2023-05-29T03:23:00;102183.25;;;10.29;85.79
59787;BME280;45672;51.612;5.536;2023-05-29T03:25:25;102182.06;;;10.22;86.48
59787;BME280;45672;51.612;5.536;2023-05-29T03:27:51;102185.31;;;10.14;86.77
59787;BME280;45672;51.612;5.536;2023-05-29T03:30:16;102195.00;;;10.15;86.91
59787;BME280;45672;51.612;5.536;2023-05-29T03:32:41;102191.72;;;10.11;87.11
59787;BME280;45672;51.612;5.536;2023-05-29T03:35:07;102191.72;;;10.11;87.34
59787;BME280;45672;51.612;5.536;2023-05-29T03:37:33;102201.16;;;10.15;87.14
59787;BME280;45672;51.612;5.536;2023-05-29T03:39:58;102192.78;;;10.09;87.25
59787;BME280;45672;51.612;5.536;2023-05-29T03:42:23;102192.19;;;10.05;87.77
59787;BME280;45672;51.612;5.536;2023-05-29T03:44:48;102198.00;;;10.10;87.69
59787;BME280;45672;51.612;5.536;2023-05-29T03:47:14;102196.31;;;10.09;87.70
59787;BME280;45672;51.612;5.536;2023-05-29T03:49:39;102197.41;;;10.07;88.00
59787;BME280;45672;51.612;5.536;2023-05-29T03:52:05;102197.41;;;10.07;87.94
59787;BME280;45672;51.612;5.536;2023-05-29T03:54:30;102204.63;;;10.05;88.45
59787;BME280;45672;51.612;5.536;2023-05-29T03:56:56;102207.16;;;10.06;88.44
59787;BME280;45672;51.612;5.536;2023-05-29T03:59:21;102199.31;;;10.05;88.31
59787;BME280;45672;51.612;5.536;2023-05-29T04:01:46;102211.41;;;10.09;88.20
59787;BME280;45672;51.612;5.536;2023-05-29T04:04:12;102214.06;;;10.09;88.16
59787;BME280;45672;51.612;5.536;2023-05-29T04:06:37;102212.50;;;10.06;88.55
59787;BME280;45672;51.612;5.536;2023-05-29T04:09:06;102217.00;;;10.17;88.01
59787;BME280;45672;51.612;5.536;2023-05-29T04:11:32;102221.13;;;10.21;87.79
59787;BME280;45672;51.612;5.536;2023-05-29T04:14:00;102226.56;;;10.20;87.89
59787;BME280;45672;51.612;5.536;2023-05-29T04:16:25;102222.19;;;10.18;87.82
59787;BME280;45672;51.612;5.536;2023-05-29T04:18:50;102224.47;;;10.12;87.94
59787;BME280;45672;51.612;5.536;2023-05-29T04:21:16;102226.06;;;10.14;87.59
59787;BME280;45672;51.612;5.536;2023-05-29T04:23:41;102209.81;;;9.95;88.38
59787;BME280;45672;51.612;5.536;2023-05-29T04:26:06;102223.13;;;10.06;88.62
59787;BME280;45672;51.612;5.536;2023-05-29T04:28:32;102222.91;;;10.09;88.31
59787;BME280;45672;51.612;5.536;2023-05-29T04:30:57;102225.47;;;10.11;87.87
59787;BME280;45672;51.612;5.536;2023-05-29T04:33:22;102225.31;;;10.01;88.54
59787;BME280;45672;51.612;5.536;2023-05-29T04:35:50;102226.03;;;10.03;88.39
59787;BME280;45672;51.612;5.536;2023-05-29T04:38:15;102228.00;;;10.12;88.11
59787;BME280;45672;51.612;5.536;2023-05-29T04:40:42;102235.63;;;10.17;87.90
59787;BME280;45672;51.612;5.536;2023-05-29T04:43:08;102231.75;;;10.21;87.06
59787;BME280;45672;51.612;5.536;2023-05-29T04:45:33;102237.06;;;10.21;87.22
59787;BME280;45672;51.612;5.536;2023-05-29T04:47:59;102222.31;;;10.17;86.93
59787;BME280;45672;51.612;5.536;2023-05-29T04:50:25;102237.56;;;10.26;87.35
59787;BME280;45672;51.612;5.536;2023-05-29T04:52:52;102235.06;;;10.36;86.53
59787;BME280;45672;51.612;5.536;2023-05-29T04:55:17;102235.69;;;10.40;86.35
59787;BME280;45672;51.612;5.536;2023-05-29T04:57:43;102236.88;;;10.47;86.30
59787;BME280;45672;51.612;5.536;2023-05-29T05:00:09;102230.25;;;10.52;84.95
59787;BME280;45672;51.612;5.536;2023-05-29T05:02:36;102234.34;;;10.57;85.05
59787;BME280;45672;51.612;5.536;2023-05-29T05:05:02;102227.34;;;10.56;84.74
59787;BME280;45672;51.612;5.536;2023-05-29T05:07:28;102240.75;;;10.65;84.22
59787;BME280;45672;51.612;5.536;2023-05-29T05:09:53;102237.16;;;10.66;84.21
59787;BME280;45672;51.612;5.536;2023-05-29T05:12:18;102233.84;;;10.74;83.30
59787;BME280;45672;51.612;5.536;2023-05-29T05:14:44;102248.03;;;10.75;83.70
59787;BME280;45672;51.612;5.536;2023-05-29T05:17:09;102235.56;;;10.75;83.31
59787;BME280;45672;51.612;5.536;2023-05-29T05:19:34;102250.56;;;10.88;82.73
59787;BME280;45672;51.612;5.536;2023-05-29T05:22:00;102258.91;;;10.94;82.84
59787;BME280;45672;51.612;5.536;2023-05-29T05:24:25;102260.34;;;10.98;82.15
59787;BME280;45672;51.612;5.536;2023-05-29T05:26:50;102269.31;;;11.09;81.77
59787;BME280;45672;51.612;5.536;2023-05-29T05:29:16;102267.09;;;11.14;81.56
59787;BME280;45672;51.612;5.536;2023-05-29T05:31:41;102269.41;;;11.18;81.36
59787;BME280;45672;51.612;5.536;2023-05-29T05:34:06;102265.63;;;11.21;81.18
59787;BME280;45672;51.612;5.536;2023-05-29T05:36:32;102271.72;;;11.23;80.92
59787;BME280;45672;51.612;5.536;2023-05-29T05:38:57;102263.56;;;11.36;80.45
59787;BME280;45672;51.612;5.536;2023-05-29T05:41:23;102268.13;;;11.45;79.73
59787;BME280;45672;51.612;5.536;2023-05-29T05:43:49;102271.19;;;11.41;79.54
59787;BME280;45672;51.612;5.536;2023-05-29T05:46:14;102274.22;;;11.36;79.85
59787;BME280;45672;51.612;5.536;2023-05-29T05:48:40;102274.69;;;11.41;79.08
59787;BME280;45672;51.612;5.536;2023-05-29T05:51:06;102265.47;;;11.45;78.63
59787;BME280;45672;51.612;5.536;2023-05-29T05:53:31;102267.50;;;11.53;78.95
59787;BME280;45672;51.612;5.536;2023-05-29T05:55:56;102258.69;;;11.73;77.19
59787;BME280;45672;51.612;5.536;2023-05-29T05:58:22;102264.91;;;11.74;77.27
59787;BME280;45672;51.612;5.536;2023-05-29T06:00:47;102256.09;;;11.83;76.98
59787;BME280;45672;51.612;5.536;2023-05-29T06:03:13;102248.69;;;11.98;75.55
59787;BME280;45672;51.612;5.536;2023-05-29T06:05:39;102256.03;;;12.06;75.53
59787;BME280;45672;51.612;5.536;2023-05-29T06:08:06;102263.44;;;12.23;74.35
59787;BME280;45672;51.612;5.536;2023-05-29T06:10:33;102260.53;;;12.27;73.74
59787;BME280;45672;51.612;5.536;2023-05-29T06:12:58;102269.16;;;12.40;72.95
59787;BME280;45672;51.612;5.536;2023-05-29T06:15:24;102262.59;;;12.44;72.01
59787;BME280;45672;51.612;5.536;2023-05-29T06:17:49;102273.81;;;12.48;72.43
59787;BME280;45672;51.612;5.536;2023-05-29T06:20:16;102273.94;;;12.67;71.74
59787;BME280;45672;51.612;5.536;2023-05-29T06:22:42;102275.72;;;12.88;71.13
59787;BME280;45672;51.612;5.536;2023-05-29T06:25:07;102281.63;;;12.91;70.48
59787;BME280;45672;51.612;5.536;2023-05-29T06:27:34;102278.28;;;12.99;70.35
59787;BME280;45672;51.612;5.536;2023-05-29T06:29:59;102280.31;;;13.26;69.92
59787;BME280;45672;51.612;5.536;2023-05-29T06:32:24;102280.78;;;13.41;68.56
59787;BME280;45672;51.612;5.536;2023-05-29T06:34:50;102275.91;;;13.56;67.10
59787;BME280;45672;51.612;5.536;2023-05-29T06:37:15;102286.47;;;13.77;66.38
59787;BME280;45672;51.612;5.536;2023-05-29T06:39:44;102301.94;;;14.23;64.80
59787;BME280;45672;51.612;5.536;2023-05-29T06:42:09;102285.47;;;14.65;62.51
59787;BME280;45672;51.612;5.536;2023-05-29T06:44:35;102290.44;;;15.25;60.76
59787;BME280;45672;51.612;5.536;2023-05-29T06:47:00;102293.59;;;15.39;59.35
59787;BME280;45672;51.612;5.536;2023-05-29T06:49:26;102296.34;;;15.47;58.90
59787;BME280;45672;51.612;5.536;2023-05-29T06:51:51;102289.63;;;15.97;57.42
59787;BME280;45672;51.612;5.536;2023-05-29T06:54:16;102291.25;;;16.34;54.91
59787;BME280;45672;51.612;5.536;2023-05-29T06:56:42;102284.78;;;16.79;55.15
59787;BME280;45672;51.612;5.536;2023-05-29T06:59:07;102297.00;;;17.00;53.30
59787;BME280;45672;51.612;5.536;2023-05-29T07:01:32;102278.47;;;17.48;51.29
59787;BME280;45672;51.612;5.536;2023-05-29T07:03:58;102299.03;;;17.82;50.50
59787;BME280;45672;51.612;5.536;2023-05-29T07:06:23;102297.19;;;17.74;50.47
59787;BME280;45672;51.612;5.536;2023-05-29T07:08:48;102293.31;;;18.42;47.89
59787;BME280;45672;51.612;5.536;2023-05-29T07:11:13;102287.16;;;18.73;46.59
59787;BME280;45672;51.612;5.536;2023-05-29T07:13:39;102282.34;;;19.00;46.72
59787;BME280;45672;51.612;5.536;2023-05-29T07:16:04;102296.97;;;19.37;44.69
59787;BME280;45672;51.612;5.536;2023-05-29T07:18:29;102295.72;;;19.79;43.34
59787;BME280;45672;51.612;5.536;2023-05-29T07:20:59;102299.44;;;20.02;43.99
59787;BME280;45672;51.612;5.536;2023-05-29T07:23:25;102304.38;;;20.51;41.72
59787;BME280;45672;51.612;5.536;2023-05-29T07:25:50;102302.34;;;20.83;41.01
59787;BME280;45672;51.612;5.536;2023-05-29T07:28:15;102299.03;;;21.54;39.33
59787;BME280;45672;51.612;5.536;2023-05-29T07:30:41;102316.88;;;21.70;38.13
59787;BME280;45672;51.612;5.536;2023-05-29T07:33:06;102304.66;;;21.38;39.26
59787;BME280;45672;51.612;5.536;2023-05-29T07:35:31;102314.88;;;21.79;39.08
59787;BME280;45672;51.612;5.536;2023-05-29T07:37:58;102315.28;;;22.47;37.61
59787;BME280;45672;51.612;5.536;2023-05-29T07:40:24;102319.44;;;22.85;36.18
59787;BME280;45672;51.612;5.536;2023-05-29T07:42:49;102307.28;;;22.74;35.59
59787;BME280;45672;51.612;5.536;2023-05-29T07:45:14;102324.50;;;22.95;34.98
59787;BME280;45672;51.612;5.536;2023-05-29T07:47:40;102323.28;;;22.62;35.37
59787;BME280;45672;51.612;5.536;2023-05-29T07:50:05;102327.75;;;22.77;34.77
59787;BME280;45672;51.612;5.536;2023-05-29T07:52:31;102331.38;;;22.55;35.59
59787;BME280;45672;51.612;5.536;2023-05-29T07:54:56;102322.03;;;23.00;35.23
59787;BME280;45672;51.612;5.536;2023-05-29T07:57:22;102321.53;;;22.83;34.47
59787;BME280;45672;51.612;5.536;2023-05-29T07:59:47;102325.94;;;22.90;34.54
59787;BME280;45672;51.612;5.536;2023-05-29T08:02:14;102327.97;;;23.17;34.11
59787;BME280;45672;51.612;5.536;2023-05-29T08:04:40;102332.81;;;23.28;33.71
59787;BME280;45672;51.612;5.536;2023-05-29T08:07:06;102319.69;;;23.38;33.62
59787;BME280;45672;51.612;5.536;2023-05-29T08:09:31;102341.13;;;24.22;32.23
59787;BME280;45672;51.612;5.536;2023-05-29T08:11:57;102330.22;;;24.55;31.66
59787;BME280;45672;51.612;5.536;2023-05-29T08:14:22;102332.25;;;24.80;31.68
59787;BME280;45672;51.612;5.536;2023-05-29T08:16:48;102329.56;;;25.64;29.97
59787;BME280;45672;51.612;5.536;2023-05-29T08:19:13;102332.19;;;25.52;30.17
59787;BME280;45672;51.612;5.536;2023-05-29T08:21:38;102336.91;;;25.95;29.85
59787;BME280;45672;51.612;5.536;2023-05-29T08:24:04;102342.66;;;26.56;28.83
59787;BME280;45672;51.612;5.536;2023-05-29T08:26:30;102351.25;;;27.15;27.69
59787;BME280;45672;51.612;5.536;2023-05-29T08:28:55;102344.34;;;26.13;29.08
59787;BME280;45672;51.612;5.536;2023-05-29T08:31:21;102344.66;;;26.24;28.92
59787;BME280;45672;51.612;5.536;2023-05-29T08:33:49;102339.91;;;25.87;29.26
59787;BME280;45672;51.612;5.536;2023-05-29T08:36:14;102336.41;;;25.41;29.53
59787;BME280;45672;51.612;5.536;2023-05-29T08:38:39;102338.94;;;24.84;30.17
59787;BME280;45672;51.612;5.536;2023-05-29T08:41:07;102345.53;;;24.30;31.35
59787;BME280;45672;51.612;5.536;2023-05-29T08:43:32;102355.72;;;24.74;31.71
59787;BME280;45672;51.612;5.536;2023-05-29T08:46:01;102348.81;;;24.85;30.44
59787;BME280;45672;51.612;5.536;2023-05-29T08:48:28;102346.72;;;24.81;30.49
59787;BME280;45672;51.612;5.536;2023-05-29T08:50:55;102349.03;;;24.70;30.58
59787;BME280;45672;51.612;5.536;2023-05-29T08:53:22;102355.00;;;25.06;30.90
59787;BME280;45672;51.612;5.536;2023-05-29T08:55:48;102350.19;;;25.08;30.44
59787;BME280;45672;51.612;5.536;2023-05-29T08:58:16;102344.88;;;25.33;29.61
59787;BME280;45672;51.612;5.536;2023-05-29T09:00:43;102342.72;;;25.42;30.21
59787;BME280;45672;51.612;5.536;2023-05-29T09:03:08;102354.88;;;26.10;28.76
59787;BME280;45672;51.612;5.536;2023-05-29T09:05:33;102342.34;;;26.02;28.38
59787;BME280;45672;51.612;5.536;2023-05-29T09:07:59;102355.25;;;25.50;29.24
59787;BME280;45672;51.612;5.536;2023-05-29T09:10:24;102360.06;;;25.86;29.04
59787;BME280;45672;51.612;5.536;2023-05-29T09:12:53;102349.63;;;25.76;29.24
59787;BME280;45672;51.612;5.536;2023-05-29T09:15:22;102354.94;;;26.28;29.46
59787;BME280;45672;51.612;5.536;2023-05-29T09:17:55;102358.16;;;26.62;28.76
59787;BME280;45672;51.612;5.536;2023-05-29T09:20:23;102352.50;;;26.39;27.58
59787;BME280;45672;51.612;5.536;2023-05-29T09:25:21;102351.09;;;26.55;27.70
59787;BME280;45672;51.612;5.536;2023-05-29T09:27:50;102352.75;;;26.37;27.82
59787;BME280;45672;51.612;5.536;2023-05-29T09:30:39;102344.88;;;25.97;29.36
59787;BME280;45672;51.612;5.536;2023-05-29T09:33:06;102357.06;;;26.45;28.43
59787;BME280;45672;51.612;5.536;2023-05-29T09:35:50;102354.19;;;27.32;27.76
59787;BME280;45672;51.612;5.536;2023-05-29T09:38:16;102346.16;;;26.45;27.67
59787;BME280;45672;51.612;5.536;2023-05-29T09:40:42;102352.47;;;26.45;28.61
59787;BME280;45672;51.612;5.536;2023-05-29T09:43:18;102358.53;;;27.22;27.70
59787;BME280;45672;51.612;5.536;2023-05-29T09:45:46;102352.41;;;27.57;26.25
59787;BME280;45672;51.612;5.536;2023-05-29T09:50:39;102352.69;;;27.37;26.44
59787;BME280;45672;51.612;5.536;2023-05-29T09:53:16;102353.53;;;27.37;27.69
59787;BME280;45672;51.612;5.536;2023-05-29T09:55:43;102346.97;;;28.34;25.48
59787;BME280;45672;51.612;5.536;2023-05-29T09:58:10;102354.03;;;27.88;25.79
59787;BME280;45672;51.612;5.536;2023-05-29T10:00:37;102356.28;;;27.79;26.32
59787;BME280;45672;51.612;5.536;2023-05-29T10:03:02;102347.91;;;28.05;26.34
59787;BME280;45672;51.612;5.536;2023-05-29T10:05:29;102353.03;;;28.60;25.39
59787;BME280;45672;51.612;5.536;2023-05-29T10:07:55;102337.09;;;28.69;25.26
59787;BME280;45672;51.612;5.536;2023-05-29T10:10:21;102341.00;;;28.49;25.03
59787;BME280;45672;51.612;5.536;2023-05-29T10:12:50;102348.34;;;28.96;25.50
59787;BME280;45672;51.612;5.536;2023-05-29T10:15:16;102349.03;;;29.44;24.40
59787;BME280;45672;51.612;5.536;2023-05-29T10:17:50;102348.25;;;29.20;24.84
59787;BME280;45672;51.612;5.536;2023-05-29T10:20:17;102341.31;;;29.29;24.22
59787;BME280;45672;51.612;5.536;2023-05-29T10:22:45;102339.34;;;28.72;24.42
59787;BME280;45672;51.612;5.536;2023-05-29T10:25:13;102345.00;;;28.94;24.32
59787;BME280;45672;51.612;5.536;2023-05-29T10:27:38;102338.97;;;28.57;24.79
59787;BME280;45672;51.612;5.536;2023-05-29T10:30:10;102336.09;;;27.50;25.52
59787;BME280;45672;51.612;5.536;2023-05-29T10:33:06;102340.53;;;27.32;26.92
59787;BME280;45672;51.612;5.536;2023-05-29T10:35:48;102333.63;;;26.81;27.53
59787;BME280;45672;51.612;5.536;2023-05-29T10:38:17;102319.28;;;26.86;27.17
59787;BME280;45672;51.612;5.536;2023-05-29T10:40:44;102323.47;;;26.01;27.96
59787;BME280;45672;51.612;5.536;2023-05-29T10:43:30;102326.19;;;25.37;29.90
59787;BME280;45672;51.612;5.536;2023-05-29T10:45:59;102333.78;;;24.29;30.35
59787;BME280;45672;51.612;5.536;2023-05-29T10:50:55;102325.97;;;23.46;31.67
59787;BME280;45672;51.612;5.536;2023-05-29T10:53:25;102327.84;;;23.38;32.29
59787;BME280;45672;51.612;5.536;2023-05-29T10:55:52;102329.16;;;22.66;33.25
59787;BME280;45672;51.612;5.536;2023-05-29T10:58:20;102328.16;;;22.17;34.30
59787;BME280;45672;51.612;5.536;2023-05-29T11:00:46;102326.00;;;21.84;35.27
59787;BME280;45672;51.612;5.536;2023-05-29T11:03:31;102320.78;;;21.82;34.85
59787;BME280;45672;51.612;5.536;2023-05-29T11:06:22;102318.19;;;21.74;36.94
59787;BME280;45672;51.612;5.536;2023-05-29T11:08:56;102318.13;;;22.39;34.82
59787;BME280;45672;51.612;5.536;2023-05-29T11:13:55;102306.53;;;22.24;34.43
59787;BME280;45672;51.612;5.536;2023-05-29T11:18:55;102320.59;;;22.34;34.38
59787;BME280;45672;51.612;5.536;2023-05-29T11:21:29;102316.28;;;22.18;34.19
59787;BME280;45672;51.612;5.536;2023-05-29T11:23:58;102305.28;;;21.98;35.00
59787;BME280;45672;51.612;5.536;2023-05-29T11:26:28;102303.31;;;21.63;35.65
59787;BME280;45672;51.612;5.536;2023-05-29T11:28:57;102306.75;;;21.57;35.93
59787;BME280;45672;51.612;5.536;2023-05-29T11:31:23;102307.63;;;21.58;36.18
59787;BME280;45672;51.612;5.536;2023-05-29T11:33:50;102313.44;;;21.76;36.27
59787;BME280;45672;51.612;5.536;2023-05-29T11:36:18;102307.16;;;21.54;35.97
59787;BME280;45672;51.612;5.536;2023-05-29T11:38:44;102295.91;;;21.21;36.32
59787;BME280;45672;51.612;5.536;2023-05-29T11:41:10;102299.66;;;21.20;36.27
59787;BME280;45672;51.612;5.536;2023-05-29T11:43:35;102299.81;;;21.33;36.36
59787;BME280;45672;51.612;5.536;2023-05-29T11:46:01;102301.59;;;21.41;35.76
59787;BME280;45672;51.612;5.536;2023-05-29T11:48:27;102297.50;;;21.30;36.29
59787;BME280;45672;51.612;5.536;2023-05-29T11:50:52;102292.13;;;21.51;35.04
59787;BME280;45672;51.612;5.536;2023-05-29T11:53:18;102294.47;;;21.40;35.25
59787;BME280;45672;51.612;5.536;2023-05-29T11:55:43;102307.81;;;21.41;35.49
59787;BME280;45672;51.612;5.536;2023-05-29T11:58:09;102295.38;;;21.10;35.76
59787;BME280;45672;51.612;5.536;2023-05-29T12:00:35;102298.53;;;21.50;34.45
59787;BME280;45672;51.612;5.536;2023-05-29T12:03:02;102301.50;;;21.34;35.59
59787;BME280;45672;51.612;5.536;2023-05-29T12:05:31;102286.94;;;21.35;35.64
59787;BME280;45672;51.612;5.536;2023-05-29T12:07:57;102297.03;;;21.63;34.20
59787;BME280;45672;51.612;5.536;2023-05-29T12:10:26;102292.63;;;21.62;34.73
59787;BME280;45672;51.612;5.536;2023-05-29T12:12:53;102287.66;;;21.44;35.46
59787;BME280;45672;51.612;5.536;2023-05-29T12:15:20;102290.94;;;21.39;35.55
59787;BME280;45672;51.612;5.536;2023-05-29T12:17:47;102290.94;;;21.39;35.21
59787;BME280;45672;51.612;5.536;2023-05-29T12:20:13;102288.91;;;21.63;35.01
59787;BME280;45672;51.612;5.536;2023-05-29T12:22:40;102291.38;;;21.58;35.01
59787;BME280;45672;51.612;5.536;2023-05-29T12:27:33;102284.84;;;21.52;34.66
59787;BME280;45672;51.612;5.536;2023-05-29T12:30:03;102289.69;;;21.78;35.07
59787;BME280;45672;51.612;5.536;2023-05-29T12:32:38;102286.31;;;21.98;34.19
59787;BME280;45672;51.612;5.536;2023-05-29T12:35:14;102282.47;;;21.64;34.78
59787;BME280;45672;51.612;5.536;2023-05-29T12:37:48;102285.56;;;21.46;35.06
59787;BME280;45672;51.612;5.536;2023-05-29T12:40:16;102280.13;;;21.39;34.79
59787;BME280;45672;51.612;5.536;2023-05-29T12:42:42;102301.22;;;21.29;34.68
59787;BME280;45672;51.612;5.536;2023-05-29T12:45:08;102288.66;;;21.21;34.64
59787;BME280;45672;51.612;5.536;2023-05-29T12:47:34;102295.63;;;21.30;35.15
59787;BME280;45672;51.612;5.536;2023-05-29T12:50:03;102286.59;;;21.45;34.25
59787;BME280;45672;51.612;5.536;2023-05-29T12:52:29;102281.38;;;21.58;34.11
59787;BME280;45672;51.612;5.536;2023-05-29T12:54:54;102292.19;;;21.80;33.84
59787;BME280;45672;51.612;5.536;2023-05-29T12:57:19;102286.69;;;21.73;33.80
59787;BME280;45672;51.612;5.536;2023-05-29T12:59:45;102283.69;;;21.61;34.34
59787;BME280;45672;51.612;5.536;2023-05-29T13:02:10;102287.97;;;21.34;35.40
59787;BME280;45672;51.612;5.536;2023-05-29T13:04:36;102286.94;;;21.35;35.79
59787;BME280;45672;51.612;5.536;2023-05-29T13:07:01;102289.09;;;21.61;34.89